createdAt,value
2019-05-12T00:01:51.568Z,11.79
2019-05-12T00:04:18.906Z,11.78
2019-05-12T00:06:44.831Z,11.76
2019-05-12T00:09:10.858Z,11.75
2019-05-12T00:11:37.926Z,11.72
2019-05-12T00:14:03.998Z,11.70
2019-05-12T00:16:29.989Z,11.68
2019-05-12T00:18:55.845Z,11.66
2019-05-12T00:21:21.705Z,11.66
2019-05-12T00:23:49.823Z,11.65
2019-05-12T00:26:15.714Z,11.65
2019-05-12T00:28:41.589Z,11.64
2019-05-12T00:31:08.405Z,11.63
2019-05-12T00:33:34.328Z,11.62
2019-05-12T00:36:00.182Z,11.62
2019-05-12T00:38:27.821Z,11.62
2019-05-12T00:40:53.808Z,11.60
2019-05-12T00:43:19.778Z,11.60
2019-05-12T00:45:48.090Z,11.60
2019-05-12T00:48:13.720Z,11.59
2019-05-12T00:50:39.775Z,11.58
2019-05-12T00:53:08.617Z,11.58
2019-05-12T00:55:33.742Z,11.57
2019-05-12T00:58:00.601Z,11.55
2019-05-12T01:00:29.432Z,11.54
2019-05-12T01:02:54.275Z,11.54
2019-05-12T01:05:20.390Z,11.53
2019-05-12T01:07:48.249Z,11.53
2019-05-12T01:10:14.314Z,11.52
2019-05-12T01:12:40.266Z,11.51
2019-05-12T01:15:07.517Z,11.49
2019-05-12T01:17:33.450Z,11.48
2019-05-12T01:19:59.672Z,11.46
2019-05-12T01:22:27.645Z,11.45
2019-05-12T01:24:53.425Z,11.44
2019-05-12T01:27:19.301Z,11.44
2019-05-12T01:29:47.897Z,11.44
2019-05-12T01:32:14.949Z,11.42
2019-05-12T01:34:40.802Z,11.39
2019-05-12T01:37:24.661Z,11.37
2019-05-12T01:39:51.118Z,11.36
2019-05-12T01:42:18.093Z,11.36
2019-05-12T01:44:44.460Z,11.36
2019-05-12T01:47:10.295Z,11.33
2019-05-12T01:49:38.248Z,11.31
2019-05-12T01:52:04.053Z,11.31
2019-05-12T01:54:29.915Z,11.32
2019-05-12T01:56:55.758Z,11.32
2019-05-12T01:59:21.831Z,11.34
2019-05-12T02:01:48.805Z,11.33
2019-05-12T02:04:14.776Z,11.34
2019-05-12T02:06:40.876Z,11.33
2019-05-12T02:09:08.749Z,11.31
2019-05-12T02:11:34.599Z,11.28
2019-05-12T02:14:01.274Z,11.25
2019-05-12T02:16:28.174Z,11.24
2019-05-12T02:18:54.034Z,11.23
2019-05-12T02:21:19.991Z,11.23
2019-05-12T02:23:47.750Z,11.21
2019-05-12T02:26:13.654Z,11.18
2019-05-12T02:28:39.712Z,11.17
2019-05-12T02:31:05.576Z,11.13
2019-05-12T02:33:31.529Z,11.12
2019-05-12T02:35:57.483Z,11.10
2019-05-12T02:38:25.125Z,11.08
2019-05-12T02:40:51.115Z,11.05
2019-05-12T02:43:17.190Z,11.04
2019-05-12T02:45:44.675Z,11.05
2019-05-12T02:48:10.647Z,11.05
2019-05-12T02:50:37.593Z,11.03
2019-05-12T02:53:05.173Z,11.03
2019-05-12T02:55:34.523Z,11.01
2019-05-12T02:58:00.010Z,11.02
2019-05-12T03:00:26.397Z,11.01
2019-05-12T03:02:54.772Z,11.00
2019-05-12T03:05:20.382Z,10.98
2019-05-12T03:07:46.890Z,10.98
2019-05-12T03:10:14.552Z,10.97
2019-05-12T03:12:40.629Z,10.95
2019-05-12T03:15:06.599Z,10.94
2019-05-12T03:17:35.553Z,10.94
2019-05-12T03:20:00.378Z,10.92
2019-05-12T03:22:26.210Z,10.91
2019-05-12T03:25:07.743Z,10.89
2019-05-12T03:27:19.868Z,10.88
2019-05-12T03:29:45.714Z,10.86
2019-05-12T03:32:11.600Z,10.85
2019-05-12T03:34:38.544Z,10.81
2019-05-12T03:37:07.920Z,10.82
2019-05-12T03:39:34.347Z,10.82
2019-05-12T03:42:00.423Z,10.82
2019-05-12T03:44:26.377Z,10.80
2019-05-12T03:46:54.340Z,10.80
2019-05-12T03:49:20.051Z,10.78
2019-05-12T03:51:45.983Z,10.77
2019-05-12T03:54:14.978Z,10.76
2019-05-12T03:56:39.794Z,10.77
2019-05-12T03:59:05.682Z,10.77
2019-05-12T04:01:31.665Z,10.77
2019-05-12T04:03:57.599Z,10.78
2019-05-12T04:06:24.452Z,10.77
2019-05-12T04:08:54.456Z,10.77
2019-05-12T04:11:18.780Z,10.77
2019-05-12T04:13:45.352Z,10.76
2019-05-12T04:16:11.381Z,10.71
2019-05-12T04:18:37.467Z,10.72
2019-05-12T04:21:05.536Z,10.75
2019-05-12T04:23:30.976Z,10.75
2019-05-12T04:26:06.841Z,10.75
2019-05-12T04:28:24.787Z,10.75
2019-05-12T04:30:50.766Z,10.72
2019-05-12T04:33:16.943Z,10.69
2019-05-12T04:35:45.268Z,10.68
2019-05-12T04:38:10.547Z,10.68
2019-05-12T04:40:36.785Z,10.66
2019-05-12T04:43:05.764Z,10.65
2019-05-12T04:45:30.798Z,10.65
2019-05-12T04:47:56.847Z,10.66
2019-05-12T04:50:24.550Z,10.66
2019-05-12T04:52:50.383Z,10.65
2019-05-12T04:55:16.397Z,10.65
2019-05-12T04:57:45.117Z,10.61
2019-05-12T05:00:10.237Z,10.59
2019-05-12T05:02:36.889Z,10.58
2019-05-12T05:05:05.460Z,10.58
2019-05-12T05:07:31.603Z,10.56
2019-05-12T05:09:57.568Z,10.56
2019-05-12T05:12:24.017Z,10.58
2019-05-12T05:14:49.928Z,10.59
2019-05-12T05:17:15.968Z,10.61
2019-05-12T05:19:44.003Z,10.61
2019-05-12T05:22:09.530Z,10.61
2019-05-12T05:24:35.541Z,10.59
2019-05-12T05:27:01.391Z,10.59
2019-05-12T05:29:27.264Z,10.61
2019-05-12T05:31:53.519Z,10.62
2019-05-12T05:34:19.379Z,10.64
2019-05-12T05:36:45.376Z,10.65
2019-05-12T05:39:13.691Z,10.66
2019-05-12T05:41:40.307Z,10.66
2019-05-12T05:44:06.815Z,10.66
2019-05-12T05:46:33.682Z,10.66
2019-05-12T05:48:59.657Z,10.66
2019-05-12T05:51:25.522Z,10.67
2019-05-12T05:53:51.974Z,10.65
2019-05-12T05:56:19.135Z,10.64
2019-05-12T05:58:47.007Z,10.62
2019-05-12T06:01:14.841Z,10.62
2019-05-12T06:03:40.715Z,10.60
2019-05-12T06:06:12.198Z,10.61
2019-05-12T06:08:34.411Z,10.61
2019-05-12T06:11:00.269Z,10.61
2019-05-12T06:13:31.474Z,10.61
2019-05-12T06:15:53.919Z,10.60
2019-05-12T06:18:19.782Z,10.58
2019-05-12T06:20:45.700Z,10.58
2019-05-12T06:23:11.737Z,10.56
2019-05-12T06:25:54.931Z,10.56
2019-05-12T06:28:08.580Z,10.55
2019-05-12T06:30:35.766Z,10.56
2019-05-12T06:33:00.862Z,10.56
2019-05-12T06:35:31.035Z,10.56
2019-05-12T06:38:00.204Z,10.56
2019-05-12T06:40:24.332Z,10.57
2019-05-12T06:42:54.094Z,10.58
2019-05-12T06:45:18.416Z,10.56
2019-05-12T06:47:49.302Z,10.55
2019-05-12T06:50:14.358Z,10.57
2019-05-12T06:52:44.609Z,10.54
2019-05-12T06:55:07.674Z,10.54
2019-05-12T06:57:34.282Z,10.53
2019-05-12T07:00:00.515Z,10.54
2019-05-12T07:02:30.274Z,10.53
2019-05-12T07:04:59.021Z,10.49
2019-05-12T07:07:25.581Z,10.50
2019-05-12T07:09:54.178Z,10.51
2019-05-12T07:12:17.457Z,10.53
2019-05-12T07:14:43.890Z,10.54
2019-05-12T07:17:14.494Z,10.51
2019-05-12T07:19:39.592Z,10.49
2019-05-12T07:22:18.906Z,10.48
2019-05-12T07:24:34.198Z,10.47
2019-05-12T07:27:04.010Z,10.45
2019-05-12T07:29:28.164Z,10.43
2019-05-12T07:31:54.051Z,10.25
2019-05-12T07:34:20.055Z,10.38
2019-05-12T07:36:46.182Z,10.36
2019-05-12T07:39:13.620Z,10.35
2019-05-12T07:41:42.557Z,10.36
2019-05-12T07:44:07.341Z,10.36
2019-05-12T07:46:34.244Z,10.34
2019-05-12T07:49:03.706Z,10.32
2019-05-12T07:51:30.279Z,10.29
2019-05-12T07:53:59.002Z,10.27
2019-05-12T07:56:30.930Z,10.27
2019-05-12T07:58:54.778Z,10.28
2019-05-12T08:01:20.105Z,10.30
2019-05-12T08:03:45.965Z,10.30
2019-05-12T08:06:14.185Z,10.31
2019-05-12T08:08:41.930Z,10.31
2019-05-12T08:11:07.555Z,10.32
2019-05-12T08:13:37.868Z,10.31
2019-05-12T08:16:03.544Z,10.29
2019-05-12T08:18:30.539Z,10.28
2019-05-12T08:20:59.918Z,10.28
2019-05-12T08:23:24.488Z,10.25
2019-05-12T08:25:50.450Z,10.25
2019-05-12T08:28:19.228Z,10.24
2019-05-12T08:30:52.016Z,10.23
2019-05-12T08:33:14.331Z,10.21
2019-05-12T08:35:39.870Z,10.21
2019-05-12T08:38:05.826Z,10.19
2019-05-12T08:40:33.931Z,10.19
2019-05-12T08:43:07.970Z,10.17
2019-05-12T08:45:34.107Z,10.16
2019-05-12T08:47:55.699Z,10.14
2019-05-12T08:50:23.124Z,10.11
2019-05-12T08:52:49.393Z,10.09
2019-05-12T08:55:16.935Z,10.10
2019-05-12T08:57:49.471Z,10.07
2019-05-12T09:00:13.298Z,10.06
2019-05-12T09:02:46.085Z,10.02
2019-05-12T09:05:08.307Z,9.97
2019-05-12T09:07:35.888Z,9.94
2019-05-12T09:10:04.172Z,9.95
2019-05-12T09:12:30.328Z,9.97
2019-05-12T09:14:56.306Z,9.97
2019-05-12T09:17:23.233Z,9.98
2019-05-12T09:19:49.301Z,9.97
2019-05-12T09:22:18.466Z,9.96
2019-05-12T09:24:44.137Z,9.93
2019-05-12T09:27:10.430Z,9.87
2019-05-12T09:29:36.270Z,9.85
2019-05-12T09:32:05.336Z,9.82
2019-05-12T09:34:29.928Z,9.81
2019-05-12T09:36:59.692Z,9.79
2019-05-12T09:39:23.577Z,9.78
2019-05-12T09:41:52.566Z,9.75
2019-05-12T09:44:20.412Z,9.75
2019-05-12T09:46:45.098Z,9.73
2019-05-12T09:49:11.068Z,9.67
2019-05-12T09:51:41.464Z,9.64
2019-05-12T09:54:05.234Z,9.61
2019-05-12T09:56:34.041Z,9.59
2019-05-12T09:59:04.755Z,9.55
2019-05-12T10:01:29.198Z,9.55
2019-05-12T10:03:54.644Z,9.53
2019-05-12T10:06:21.455Z,9.49
2019-05-12T10:08:47.365Z,9.47
2019-05-12T10:11:16.538Z,9.48
2019-05-12T10:13:41.203Z,9.46
2019-05-12T10:16:08.791Z,9.46
2019-05-12T10:18:35.084Z,9.44
2019-05-12T10:21:00.936Z,9.42
2019-05-12T10:23:27.475Z,9.38
2019-05-12T10:25:53.914Z,9.33
2019-05-12T10:28:19.883Z,9.28
2019-05-12T10:30:47.087Z,9.27
2019-05-12T10:33:13.949Z,9.23
2019-05-12T10:35:40.037Z,9.22
2019-05-12T10:38:10.497Z,9.19
2019-05-12T10:40:34.039Z,9.15
2019-05-12T10:42:59.921Z,9.10
2019-05-12T10:45:27.667Z,9.04
2019-05-12T10:47:55.741Z,9.00
2019-05-12T10:50:23.404Z,8.98
2019-05-12T10:52:49.355Z,8.98
2019-05-12T10:55:15.430Z,8.97
2019-05-12T10:57:41.285Z,8.95
2019-05-12T11:00:09.057Z,8.91
2019-05-12T11:02:35.015Z,8.88
2019-05-12T11:05:00.876Z,8.83
2019-05-12T11:07:28.038Z,8.79
2019-05-12T11:09:54.465Z,8.76
2019-05-12T11:12:25.154Z,8.71
2019-05-12T11:14:48.095Z,8.68
2019-05-12T11:17:14.444Z,8.66
2019-05-12T11:19:47.226Z,8.65
2019-05-12T11:22:13.734Z,8.64
2019-05-12T11:24:39.195Z,8.63
2019-05-12T11:27:05.124Z,8.61
2019-05-12T11:29:44.877Z,8.60
2019-05-12T11:31:59.012Z,8.56
2019-05-12T11:34:24.879Z,8.57
2019-05-12T11:36:50.726Z,8.57
2019-05-12T11:39:16.778Z,8.56
2019-05-12T11:41:44.229Z,8.53
2019-05-12T11:44:10.582Z,8.52
2019-05-12T11:46:36.541Z,8.51
2019-05-12T11:49:04.418Z,8.50
2019-05-12T11:51:30.686Z,8.48
2019-05-12T11:53:56.808Z,8.50
2019-05-12T11:56:24.328Z,8.50
2019-05-12T11:58:53.654Z,8.48
2019-05-12T12:01:20.023Z,8.44
2019-05-12T12:03:45.920Z,8.37
2019-05-12T12:06:13.466Z,8.32
2019-05-12T12:08:39.426Z,8.30
2019-05-12T12:11:05.467Z,8.28
2019-05-12T12:13:33.662Z,8.25
2019-05-12T12:16:00.594Z,8.24
2019-05-12T12:18:27.559Z,8.17
2019-05-12T12:21:01.795Z,8.13
2019-05-12T12:23:21.292Z,8.08
2019-05-12T12:25:48.530Z,8.05
2019-05-12T12:28:14.913Z,8.05
2019-05-12T12:30:40.877Z,8.05
2019-05-12T12:33:06.850Z,8.05
2019-05-12T12:35:34.360Z,8.05
2019-05-12T12:38:00.679Z,8.05
2019-05-12T12:40:28.833Z,8.03
2019-05-12T12:42:54.207Z,8.01
2019-05-12T12:45:36.837Z,7.98
2019-05-12T12:48:01.714Z,7.99
2019-05-12T12:50:30.532Z,8.00
2019-05-12T12:52:55.518Z,7.99
2019-05-12T12:55:23.297Z,7.95
2019-05-12T12:57:50.831Z,7.93
2019-05-12T13:00:28.931Z,7.93
2019-05-12T13:02:49.124Z,7.90
2019-05-12T13:05:13.598Z,7.90
2019-05-12T13:07:39.715Z,7.91
2019-05-12T13:10:09.404Z,7.89
2019-05-12T13:12:35.744Z,7.88
2019-05-12T13:15:01.273Z,7.87
2019-05-12T13:17:36.439Z,7.86
2019-05-12T13:19:58.634Z,7.86
2019-05-12T13:22:24.653Z,7.87
2019-05-12T13:24:50.508Z,7.88
2019-05-12T13:27:19.295Z,7.88
2019-05-12T13:29:44.163Z,7.87
2019-05-12T13:32:10.019Z,7.85
2019-05-12T13:34:38.490Z,7.82
2019-05-12T13:37:03.892Z,7.76
2019-05-12T13:39:29.746Z,7.76
2019-05-12T13:42:00.067Z,7.76
2019-05-12T13:44:24.064Z,7.76
2019-05-12T13:46:57.001Z,7.80
2019-05-12T13:49:17.618Z,7.80
2019-05-12T13:51:48.544Z,7.83
2019-05-12T13:54:11.340Z,7.80
2019-05-12T13:56:37.192Z,7.78
2019-05-12T13:59:04.210Z,7.79
2019-05-12T14:01:31.915Z,7.80
2019-05-12T14:03:58.718Z,7.81
2019-05-12T14:06:32.102Z,7.82
2019-05-12T14:08:53.845Z,7.86
2019-05-12T14:11:20.255Z,7.86
2019-05-12T14:13:46.217Z,7.83
2019-05-12T14:16:13.373Z,7.81
2019-05-12T14:18:39.221Z,7.82
2019-05-12T14:21:05.278Z,7.80
2019-05-12T14:23:31.161Z,7.81
2019-05-12T14:25:56.995Z,7.83
2019-05-12T14:28:23.501Z,7.84
2019-05-12T14:30:51.702Z,7.84
2019-05-12T14:33:18.464Z,7.85
2019-05-12T14:35:46.017Z,7.85
2019-05-12T14:38:14.087Z,7.85
2019-05-12T14:40:39.754Z,7.85
2019-05-12T14:43:10.199Z,7.85
2019-05-12T14:45:33.528Z,7.83
2019-05-12T14:47:59.916Z,7.82
2019-05-12T14:50:27.193Z,7.80
2019-05-12T14:52:55.911Z,7.80
2019-05-12T14:55:20.757Z,7.81
2019-05-12T14:57:46.755Z,7.84
2019-05-12T15:00:19.184Z,7.85
2019-05-12T15:02:43.480Z,7.87
2019-05-12T15:05:10.753Z,7.86
2019-05-12T15:07:42.697Z,7.85
2019-05-12T15:10:08.570Z,7.85
2019-05-12T15:12:33.566Z,7.86
2019-05-12T15:14:59.417Z,7.85
2019-05-12T15:17:25.294Z,7.86
2019-05-12T15:19:51.299Z,7.86
2019-05-12T15:22:17.287Z,7.86
2019-05-12T15:24:44.105Z,7.87
2019-05-12T15:27:10.232Z,7.90
2019-05-12T15:29:36.097Z,7.93
2019-05-12T15:32:03.924Z,7.92
2019-05-12T15:34:29.883Z,7.91
2019-05-12T15:36:57.355Z,7.91
2019-05-12T15:39:23.449Z,7.93
2019-05-12T15:41:50.986Z,7.93
2019-05-12T15:44:17.173Z,7.95
2019-05-12T15:46:45.977Z,7.96
2019-05-12T15:49:11.055Z,7.98
2019-05-12T15:51:39.075Z,7.99
2019-05-12T15:54:11.267Z,7.97
2019-05-12T15:56:32.460Z,7.97
2019-05-12T15:59:00.957Z,7.91
2019-05-12T16:01:26.092Z,7.93
2019-05-12T16:03:54.226Z,7.94
2019-05-12T16:06:19.838Z,7.99
2019-05-12T16:08:45.726Z,8.00
2019-05-12T16:11:13.826Z,8.00
2019-05-12T16:13:44.104Z,8.02
2019-05-12T16:16:07.160Z,8.03
2019-05-12T16:18:34.490Z,8.02
2019-05-12T16:21:05.103Z,8.01
2019-05-12T16:23:29.963Z,8.01
2019-05-12T16:25:56.033Z,8.02
2019-05-12T16:28:24.302Z,8.03
2019-05-12T16:30:49.511Z,8.04
2019-05-12T16:33:20.618Z,8.05
2019-05-12T16:35:44.180Z,8.09
2019-05-12T16:38:17.927Z,8.07
2019-05-12T16:40:39.463Z,8.07
2019-05-12T16:43:05.610Z,8.03
2019-05-12T16:45:33.665Z,8.03
2019-05-12T16:48:04.785Z,8.03
2019-05-12T16:50:28.071Z,8.00
2019-05-12T16:52:54.042Z,7.99
2019-05-12T16:55:20.173Z,7.98
2019-05-12T16:57:52.801Z,7.78
2019-05-12T17:00:14.329Z,7.97
2019-05-12T17:02:42.192Z,7.96
2019-05-12T17:05:18.165Z,7.92
2019-05-12T17:07:35.930Z,7.88
2019-05-12T17:10:11.180Z,7.85
2019-05-12T17:12:32.009Z,7.84
2019-05-12T17:14:59.877Z,7.82
2019-05-12T17:17:25.908Z,7.82
2019-05-12T17:19:53.898Z,7.82
2019-05-12T17:22:19.457Z,7.80
2019-05-12T17:24:45.409Z,7.79
2019-05-12T17:27:18.415Z,7.77
2019-05-12T17:29:39.063Z,7.76
2019-05-12T17:32:05.017Z,7.78
2019-05-12T17:34:31.020Z,7.76
2019-05-12T17:37:00.435Z,7.79
2019-05-12T17:39:29.551Z,7.78
2019-05-12T17:41:52.502Z,7.76
2019-05-12T17:44:18.377Z,7.74
2019-05-12T17:46:44.373Z,7.74
2019-05-12T17:49:15.066Z,7.74
2019-05-12T17:51:38.008Z,7.72
2019-05-12T17:54:06.963Z,7.70
2019-05-12T17:56:33.945Z,7.68
2019-05-12T17:58:59.725Z,7.66
2019-05-12T18:01:31.377Z,7.62
2019-05-12T18:03:55.801Z,7.57
2019-05-12T18:06:29.097Z,7.56
2019-05-12T18:08:49.613Z,7.56
2019-05-12T18:11:16.631Z,7.55
2019-05-12T18:13:42.487Z,7.53
2019-05-12T18:16:11.451Z,7.52
2019-05-12T18:18:38.123Z,7.49
2019-05-12T18:21:04.089Z,7.47
2019-05-12T18:23:30.498Z,7.41
2019-05-12T18:25:56.466Z,7.41
2019-05-12T18:28:27.666Z,7.38
2019-05-12T18:30:50.440Z,7.33
2019-05-12T18:33:29.735Z,7.31
2019-05-12T18:35:44.089Z,7.29
2019-05-12T18:38:20.948Z,7.28
2019-05-12T18:40:37.963Z,7.25
2019-05-12T18:43:03.975Z,7.23
2019-05-12T18:45:29.985Z,7.22
2019-05-12T18:47:55.950Z,7.23
2019-05-12T18:50:27.260Z,7.24
2019-05-12T18:52:49.857Z,7.23
2019-05-12T18:55:15.825Z,7.23
2019-05-12T18:57:47.977Z,7.23
2019-05-12T19:00:13.286Z,7.21
2019-05-12T19:02:39.156Z,7.20
2019-05-12T19:05:05.129Z,7.20
2019-05-12T19:07:39.818Z,7.20
2019-05-12T19:09:58.894Z,7.19
2019-05-12T19:12:32.182Z,7.17
2019-05-12T19:14:54.691Z,7.16
2019-05-12T19:17:20.455Z,7.13
2019-05-12T19:19:51.496Z,7.11
2019-05-12T19:22:14.211Z,7.11
2019-05-12T19:24:40.069Z,7.08
2019-05-12T19:27:10.226Z,7.02
2019-05-12T19:29:38.679Z,7.00
2019-05-12T19:32:04.347Z,7.02
2019-05-12T19:34:31.800Z,7.00
2019-05-12T19:36:59.218Z,6.98
2019-05-12T19:39:25.522Z,6.95
2019-05-12T19:41:54.171Z,6.93
2019-05-12T19:44:20.170Z,6.93
2019-05-12T19:46:49.484Z,6.93
2019-05-12T19:49:15.100Z,6.91
2019-05-12T19:51:43.628Z,6.89
2019-05-12T19:54:08.895Z,6.84
2019-05-12T19:56:39.063Z,6.82
2019-05-12T19:59:04.351Z,6.79
2019-05-12T20:01:32.763Z,6.76
2019-05-12T20:03:58.182Z,6.74
2019-05-12T20:06:24.405Z,6.70
2019-05-12T20:08:55.732Z,6.69
2019-05-12T20:11:20.183Z,6.67
2019-05-12T20:13:45.825Z,6.65
2019-05-12T20:16:21.335Z,6.63
2019-05-12T20:18:42.734Z,6.62
2019-05-12T20:21:07.251Z,6.60
2019-05-12T20:23:33.533Z,6.57
2019-05-12T20:25:59.467Z,6.53
2019-05-12T20:28:25.587Z,6.51
2019-05-12T20:30:52.414Z,6.46
2019-05-12T20:33:19.183Z,6.39
2019-05-12T20:35:49.245Z,6.33
2019-05-12T20:38:15.129Z,6.32
2019-05-12T20:40:43.147Z,6.32
2019-05-12T20:43:11.547Z,6.31
2019-05-12T20:45:40.605Z,6.29
2019-05-12T20:48:04.199Z,6.29
2019-05-12T20:50:34.102Z,6.27
2019-05-12T20:52:58.887Z,6.28
2019-05-12T20:55:25.044Z,6.27
2019-05-12T20:57:54.465Z,6.27
2019-05-12T21:00:19.819Z,6.25
2019-05-12T21:02:45.663Z,6.24
2019-05-12T21:05:16.456Z,6.23
2019-05-12T21:07:39.822Z,6.20
2019-05-12T21:10:06.006Z,6.19
2019-05-12T21:12:33.434Z,6.15
2019-05-12T21:15:12.582Z,6.10
2019-05-12T21:17:39.592Z,6.10
2019-05-12T21:19:59.118Z,6.09
2019-05-12T21:22:23.733Z,6.07
2019-05-12T21:24:49.621Z,6.04
2019-05-12T21:27:19.716Z,6.01
2019-05-12T21:29:43.830Z,6.00
2019-05-12T21:32:12.638Z,5.98
2019-05-12T21:34:37.563Z,5.98
2019-05-12T21:37:04.670Z,5.98
2019-05-12T21:39:33.424Z,5.96
2019-05-12T21:41:58.880Z,5.95
2019-05-12T21:44:24.763Z,5.95
2019-05-12T21:47:00.950Z,5.92
2019-05-12T21:49:18.387Z,5.92
2019-05-12T21:51:50.311Z,5.91
2019-05-12T21:54:13.558Z,5.87
2019-05-12T21:56:45.006Z,5.85
2019-05-12T21:59:07.673Z,5.86
2019-05-12T22:01:35.063Z,5.85
2019-05-12T22:04:02.544Z,5.86
2019-05-12T22:06:29.349Z,5.82
2019-05-12T22:09:01.069Z,5.79
2019-05-12T22:11:25.314Z,5.79
2019-05-12T22:13:56.086Z,5.82
2019-05-12T22:16:19.298Z,5.81
2019-05-12T22:18:47.814Z,5.80
2019-05-12T22:21:13.661Z,5.81
2019-05-12T22:23:44.577Z,5.78
2019-05-12T22:26:07.870Z,5.77
2019-05-12T22:28:34.297Z,5.76
2019-05-12T22:31:00.454Z,5.73
2019-05-12T22:33:26.721Z,5.72
2019-05-12T22:36:02.755Z,5.73
2019-05-12T22:38:21.203Z,5.76
2019-05-12T22:40:49.298Z,5.76
2019-05-12T22:43:15.490Z,5.71
2019-05-12T22:45:48.723Z,5.68
2019-05-12T22:48:10.674Z,5.69
2019-05-12T22:50:36.774Z,5.68
2019-05-12T22:53:04.588Z,5.68
2019-05-12T22:55:32.676Z,5.69
2019-05-12T22:57:58.859Z,5.68
2019-05-12T23:00:25.047Z,5.50
2019-05-12T23:02:53.560Z,5.68
2019-05-12T23:05:20.608Z,5.68
2019-05-12T23:07:46.822Z,5.67
2019-05-12T23:10:14.230Z,5.66
2019-05-12T23:12:40.453Z,5.66
2019-05-12T23:15:07.462Z,5.66
2019-05-12T23:17:33.952Z,5.65
2019-05-12T23:19:59.998Z,5.63
2019-05-12T23:22:29.352Z,5.61
2019-05-12T23:24:54.659Z,5.56
2019-05-12T23:27:25.224Z,5.53
2019-05-12T23:29:48.778Z,5.52
2019-05-12T23:32:15.987Z,5.53
2019-05-12T23:34:45.065Z,5.53
2019-05-12T23:37:09.998Z,5.54
2019-05-12T23:39:38.225Z,5.54
2019-05-12T23:42:04.476Z,5.54
2019-05-12T23:44:30.572Z,5.51
2019-05-12T23:46:56.853Z,5.49
2019-05-12T23:49:24.399Z,5.48
2019-05-12T23:51:50.387Z,5.47
2019-05-12T23:54:16.467Z,5.46
2019-05-12T23:56:44.349Z,5.46
2019-05-12T23:59:10.070Z,5.46
